CDT,Max TemperatureF,Mean TemperatureF,Min TemperatureF,Max Dew PointF,MeanDew PointF,Min DewpointF,Max Humidity, Mean Humidity, Min Humidity, Max Sea Level PressureIn, Mean Sea Level PressureIn, Min Sea Level PressureIn, Max VisibilityMiles, Mean VisibilityMiles, Min VisibilityMiles, Max Wind SpeedMPH, Mean Wind SpeedMPH, Max Gust SpeedMPH,PrecipitationIn, CloudCover, Events, WindDirDegrees
2013-3-1,27,14,-2,3,-2,-9,72,48,26,30.48,30.43,30.35,10,10,10,7,4,,0.00,0,,39
2013-3-2,30,8,-14,0,-7,-19,80,54,22,30.43,30.34,30.22,10,10,10,6,1,,0.00,1,,180
2013-3-3,30,15,0,10,2,-5,83,56,28,30.21,30.14,30.09,10,10,10,12,4,17,0.00,5,,130
2013-3-4,28,24,19,19,15,8,86,69,41,30.13,30.07,30.00,10,5,0,18,10,26,0.11,8,Snow,97
2013-3-5,24,22,18,20,17,12,86,79,69,30.35,30.16,30.03,10,2,0,13,9,20,0.15,8,Snow,41
2013-3-6,24,12,-2,12,5,-7,92,77,60,30.45,30.38,30.29,10,8,2,10,5,,0.00,5,Snow,312
2013-3-7,30,10,-11,14,4,-17,86,68,47,30.48,30.40,30.27,10,10,10,13,3,,0.00,1,,131
2013-3-8,34,26,17,25,18,12,88,76,64,30.36,30.27,30.15,10,8,6,7,4,,0.00,5,,151
2013-3-9,33,30,27,31,28,20,92,85,72,30.14,29.84,29.72,10,3,0,14,5,,0.38,8,Fog-Snow,115
2013-3-10,32,26,21,27,22,14,86,76,66,30.08,29.98,29.78,10,9,5,18,13,23,0.00,8,,351
2013-3-11,28,24,19,16,14,12,80,70,58,30.03,29.85,29.72,10,10,10,13,7,,0.00,8,,357
2013-3-12,21,14,6,14,8,-3,84,66,46,30.22,29.97,29.76,10,8,2,20,11,26,0.00,6,Snow,334
2013-3-13,32,12,-5,9,3,-6,96,63,38,30.37,30.30,30.22,10,10,10,9,5,,0.00,0,,317
2013-3-14,39,20,0,27,15,-6,85,70,55,30.25,30.09,29.95,10,10,10,15,2,,0.00,7,,256
2013-3-15,33,23,12,27,11,2,79,68,37,30.08,30.01,29.94,10,6,1,14,10,21,0.01,8,Snow,17
2013-3-16,18,9,-4,7,0,-11,80,68,50,30.31,30.12,29.99,10,8,2,22,9,29,0.00,5,Snow,331
2013-3-17,23,2,-20,10,-6,-26,79,59,38,30.35,30.19,29.92,10,10,10,15,6,23,0.00,4,,138
2013-3-18,26,20,15,21,16,7,86,78,55,29.88,29.58,29.44,10,3,0,24,12,36,0.11,8,Snow,161
2013-3-19,21,14,6,9,2,-4,79,64,48,30.12,29.89,29.60,10,8,2,28,21,36,0.00,4,Snow,303
2013-3-20,18,10,3,3,-2,-5,73,62,50,30.18,30.13,30.04,10,10,8,20,15,24,0.00,6,,317
2013-3-21,30,13,-2,10,2,-8,80,66,45,30.16,30.11,30.03,10,10,9,12,3,,0.00,3,,329
2013-3-22,35,16,-2,17,8,-9,84,67,48,30.14,30.12,30.02,10,10,10,7,3,,0.00,1,,337
2013-3-23,39,20,3,21,11,-1,89,68,44,30.20,30.15,30.08,10,10,10,9,1,,0.00,6,,28
2013-3-24,30,24,19,25,20,10,86,71,54,30.17,30.10,30.05,10,7,1,13,2,17,0.01,7,Snow,39
2013-3-25,37,26,14,18,14,8,77,59,42,30.24,30.19,30.14,10,10,10,14,10,22,0.00,3,,347
2013-3-26,37,28,19,23,18,12,74,62,46,30.30,30.28,30.25,10,10,10,7,3,,0.00,7,,323
2013-3-27,44,32,21,24,17,12,79,56,31,30.35,30.33,30.31,10,10,10,6,1,,0.00,4,,10
2013-3-28,46,28,9,19,13,3,84,58,27,30.38,30.33,30.29,10,10,10,5,1,,0.00,0,,320
2013-3-29,51,32,14,29,22,10,84,61,40,30.31,30.20,30.02,10,10,10,10,3,16,0.00,2,,169
2013-3-30,52,42,35,36,31,19,96,76,38,30.03,29.88,29.79,10,5,0,15,3,,0.28,6,Fog-Rain,309
2013-3-31,36,30,21,27,20,9,86,68,45,30.07,29.81,29.68,10,6,1,26,14,38,0.00,7,Snow,312